Data for 02/20/2008

Time Sea-Level Adjusted Pressure Absolute Pressure Temperature Relative Humidity Dew Point   
(mb) (inHg) (mb) (inHg) (C) (F) (%) (C) (F)
00:05 1015 29.97 844 24.92 -1 30.2 41 -12.8 9
00:10 1015 29.97 844 24.92 -1.2 29.9 42 -12.5 9.4
00:15 1015 29.97 844 24.92 -1.4 29.4 44 -12 10.3
00:20 1015 29.97 844 24.92 -1.9 28.6 46 -12 10.5
00:25 1015 29.97 844 24.92 -2.1 28.3 47 -12.1 10.3
00:30 1015 29.97 844 24.92 -2.1 28.3 47 -12.1 10.3
00:35 1015 29.97 844 24.92 -2.3 27.9 47 -12.1 10.2
00:40 1015 29.97 844 24.92 -2.5 27.5 46 -12.6 9.2
00:45 1015 29.97 844 24.92 -2.3 27.8 44 -13.1 8.3
00:50 1015 29.97 844 24.92 -2.2 28.1 42 -13.4 7.9
00:55 1015 29.97 844 24.92 -1.7 29 40 -13.7 7.4
01:00 1015 29.97 844 24.92 -1.2 29.8 42 -12.5 9.5
01:05 1015 29.97 844 24.92 -1.6 29.1 43 -12.5 9.5
01:10 1015 29.97 844 24.92 -2.1 28.2 45 -12.5 9.4
01:15 1015 29.97 844 24.92 -2.2 28 46 -12.4 9.6
01:20 1015 29.97 844 24.92 -2.4 27.6 47 -12.2 10
01:25 1015 29.97 844 24.92 -2.3 27.9 46 -12.4 9.7
01:30 1014 29.94 844 24.92 -1.6 29.1 41 -13.1 8.4
01:35 1014 29.94 844 24.92 -1 30.1 43 -12.1 10.2
01:40 1015 29.97 844 24.92 -1.2 29.8 43 -12.2 10.1
01:45 1015 29.97 844 24.92 -1.4 29.4 46 -11.6 11.1
01:50 1015 29.97 844 24.92 -1.7 28.9 45 -12.1 10.3
01:55 1014 29.94 844 24.92 -1.6 29.1 45 -12.2 10
02:00 1014 29.94 844 24.92 -1.7 28.9 45 -12.1 10.1
02:05 1014 29.94 844 24.92 -1.8 28.7 44 -12.5 9.6
02:10 1014 29.94 844 24.92 -1.8 28.7 44 -12.5 9.5
02:15 1014 29.94 844 24.92 -1.9 28.6 45 -12.4 9.7
02:20 1014 29.94 844 24.92 -1.8 28.8 44 -12.6 9.4
02:25 1014 29.94 844 24.92 -2.1 28.2 47 -12 10.4
02:30 1014 29.94 844 24.92 -2.3 27.8 48 -11.9 10.5
02:35 1014 29.94 844 24.92 -2.5 27.6 49 -11.7 10.9
02:40 1014 29.94 844 24.92 -2.5 27.6 50 -11.6 11.1
02:45 1014 29.94 844 24.92 -2.6 27.2 50 -11.7 10.9
02:50 1014 29.94 844 24.92 -3 26.7 49 -12.3 9.9
02:55 1014 29.94 843 24.89 -3 26.6 48 -12.4 9.6
03:00 1014 29.94 843 24.89 -2.7 27.2 46 -12.6 9.3
03:05 1014 29.94 843 24.89 -2.3 27.9 44 -12.9 8.9
03:10 1014 29.94 843 24.89 -1.7 29 43 -12.8 9
03:15 1014 29.94 843 24.89 -1.7 28.9 43 -12.6 9.3
03:20 1014 29.94 843 24.89 -2.1 28.2 46 -12.3 9.8
03:25 1014 29.94 843 24.89 -2.8 26.9 48 -12.3 9.9
03:30 1014 29.94 843 24.89 -3.3 26.1 50 -12.4 9.7
03:35 1014 29.94 843 24.89 -3.4 25.9 50 -12.4 9.7
03:40 1014 29.94 843 24.89 -3.5 25.8 51 -12.1 10.2
03:45 1014 29.94 843 24.89 -3.6 25.5 52 -12 10.3
03:50 1014 29.94 843 24.89 -3.8 25.2 53 -12 10.4
03:55 1014 29.94 843 24.89 -3.7 25.3 52 -12.1 10.2
04:00 1014 29.94 843 24.89 -3.4 25.9 52 -11.9 10.5
04:05 1014 29.94 843 24.89 -3.5 25.8 52 -11.8 10.7
04:10 1014 29.94 843 24.89 -3.5 25.7 53 -11.8 10.7
04:15 1014 29.94 843 24.89 -3.5 25.7 53 -11.8 10.8
04:20 1014 29.94 843 24.89 -3.4 25.9 52 -11.9 10.6
04:25 1014 29.94 843 24.89 -3.4 25.8 53 -11.7 10.9
04:30 1014 29.94 843 24.89 -3.3 26 53 -11.6 11
04:35 1014 29.94 843 24.89 -3.1 26.4 52 -11.7 11
04:40 1014 29.94 843 24.89 -3.2 26.3 52 -11.7 10.9
04:45 1013 29.91 843 24.89 -3.3 26.1 52 -11.7 10.9
04:50 1014 29.94 843 24.89 -3.7 25.4 54 -11.8 10.8
04:55 1013 29.91 843 24.89 -3.9 24.9 54 -11.8 10.7
05:00 1013 29.91 843 24.89 -4 24.8 55 -11.8 10.8
05:05 1013 29.91 843 24.89 -4.1 24.6 56 -11.6 11.1
05:10 1013 29.91 843 24.89 -4.2 24.5 56 -11.6 11.1
05:15 1013 29.91 843 24.89 -4 24.7 55 -11.8 10.8
05:20 1013 29.91 843 24.89 -3.9 25 54 -11.9 10.5
05:25 1013 29.91 843 24.89 -3.8 25.1 54 -12 10.5
05:30 1013 29.91 843 24.89 -3.8 25.1 54 -11.9 10.5
05:35 1013 29.91 843 24.89 -3.7 25.3 53 -12 10.3
05:40 1013 29.91 843 24.89 -3.4 25.9 52 -11.9 10.6
05:45 1013 29.91 843 24.89 -3.3 26.1 51 -11.9 10.5
05:50 1013 29.91 843 24.89 -3 26.6 50 -12.1 10.1
05:55 1013 29.91 843 24.89 -2.6 27.2 49 -12 10.4
06:00 1013 29.91 843 24.89 -2.7 27.1 49 -12.1 10.3
06:05 1013 29.91 843 24.89 -2.8 26.9 49 -12.2 10
06:10 1013 29.91 843 24.89 -3 26.6 50 -12 10.4
06:15 1013 29.91 843 24.89 -3.6 25.6 51 -12.4 9.6
06:20 1013 29.91 843 24.89 -4.3 24.3 52 -12.7 9.1
06:25 1013 29.91 843 24.89 -4.6 23.6 54 -12.6 9.3
06:30 1013 29.91 843 24.89 -4.8 23.4 53 -12.9 8.8
06:35 1013 29.91 843 24.89 -4.2 24.4 51 -12.9 8.8
06:40 1013 29.91 843 24.89 -3.8 25.2 49 -13 8.7
06:45 1013 29.91 843 24.89 -3.9 25.1 51 -12.5 9.4
06:50 1013 29.91 843 24.89 -3.7 25.3 51 -12.4 9.6
06:55 1013 29.91 843 24.89 -3.5 25.6 51 -12.4 9.7
07:00 1013 29.91 843 24.89 -3.6 25.5 52 -12.1 10.2
07:05 1013 29.91 843 24.89 -3.8 25.1 53 -12.1 10.3
07:10 1013 29.91 843 24.89 -4.1 24.7 54 -12.2 10.1
07:15 1013 29.91 843 24.89 -4.5 23.9 55 -12.2 10
07:20 1014 29.94 843 24.89 -4.6 23.7 55 -12.4 9.7
07:25 1014 29.94 843 24.89 -4.6 23.6 54 -12.6 9.3
07:30 1014 29.94 843 24.89 -4.4 24.1 54 -12.5 9.6
07:35 1014 29.94 843 24.89 -4.4 24.1 53 -12.6 9.3
07:40 1014 29.94 843 24.89 -4 24.8 52 -12.5 9.5
07:45 1014 29.94 843 24.89 -3.9 24.9 52 -12.4 9.7
07:50 1014 29.94 843 24.89 -4 24.8 52 -12.5 9.6
07:55 1014 29.94 843 24.89 -4.1 24.7 53 -12.2 10
08:00 1014 29.94 843 24.89 -4.2 24.4 54 -12.3 9.9
08:05 1014 29.94 843 24.89 -4.4 24.1 55 -12.1 10.2
08:10 1014 29.94 843 24.89 -4.4 24.2 53 -12.5 9.5
08:15 1014 29.94 843 24.89 -4 24.9 52 -12.5 9.5
08:20 1014 29.94 843 24.89 -3.7 25.4 51 -12.4 9.8
08:25 1014 29.94 843 24.89 -3.6 25.5 51 -12.4 9.7
08:30 1014 29.94 843 24.89 -3.5 25.7 50 -12.5 9.5
08:35 1014 29.94 843 24.89 -3.1 26.4 49 -12.4 9.6
08:40 1014 29.94 843 24.89 -2.6 27.4 47 -12.5 9.4
08:45 1014 29.94 843 24.89 -2.1 28.2 44 -12.8 9
08:50 1014 29.94 843 24.89 -1.6 29.1 43 -12.8 9
08:55 1014 29.94 843 24.89 -1.2 29.8 42 -12.6 9.3
09:00 1014 29.94 843 24.89 -0.7 30.7 41 -12.6 9.4
09:05 1014 29.94 843 24.89 -0.5 31.1 39 -12.8 9
09:10 1014 29.94 843 24.89 -0.1 31.9 39 -12.3 9.8
09:15 1014 29.94 843 24.89 0.3 32.6 38 -12.5 9.5
09:20 1014 29.94 843 24.89 0.7 33.2 36 -12.6 9.3
09:25 1014 29.94 843 24.89 1.1 33.9 36 -12.4 9.8
09:30 1014 29.94 843 24.89 1.5 34.6 36 -12.1 10.2
09:35 1014 29.94 843 24.89 1.2 34.1 38 -11.6 11
09:40 1014 29.94 843 24.89 0.9 33.6 38 -11.9 10.5
09:45 1014 29.94 843 24.89 0.8 33.4 38 -11.9 10.7
09:50 1014 29.94 843 24.89 1 33.9 36 -12.5 9.5
09:55 1014 29.94 843 24.89 1.6 34.9 35 -12.4 9.6
10:00 1014 29.94 843 24.89 2.1 35.8 34 -12.3 9.8
10:05 1014 29.94 843 24.89 2.5 36.5 33 -12.2 10
10:10 1014 29.94 843 24.89 2.4 36.3 34 -12 10.5
10:15 1014 29.94 843 24.89 2.7 36.9 33 -12 10.4
10:20 1014 29.94 843 24.89 2.8 37.1 33 -12 10.4
10:25 1014 29.94 843 24.89 2.7 36.9 33 -12.1 10.2
10:30 1014 29.94 843 24.89 2.5 36.5 33 -12.3 9.9
10:35 1014 29.94 843 24.89 2.4 36.2 33 -12.4 9.6
10:40 1014 29.94 843 24.89 2.8 37 32 -12.2 10
10:45 1014 29.94 843 24.89 2.5 36.5 34 -12 10.4
10:50 1014 29.94 843 24.89 2.4 36.3 35 -11.7 11
10:55 1014 29.94 843 24.89 2.7 36.9 33 -11.9 10.6
11:00 1014 29.94 843 24.89 3.7 38.7 32 -11.5 11.2
11:05 1014 29.94 843 24.89 4.4 40 31 -11.1 12
11:10 1014 29.94 843 24.89 4.4 40 32 -10.8 12.5
11:15 1014 29.94 843 24.89 5.1 41.1 30 -11.2 11.9
11:20 1014 29.94 843 24.89 5.2 41.3 31 -10.7 12.7
11:25 1014 29.94 843 24.89 4.7 40.4 35 -9.4 15.1
11:30 1014 29.94 843 24.89 3.4 38 36 -10.4 13.3
11:35 1014 29.94 843 24.89 4.5 40.2 34 -9.8 14.3
11:40 1014 29.94 843 24.89 3.7 38.7 37 -9.8 14.4
11:45 1014 29.94 843 24.89 4 39.2 36 -9.8 14.3
11:50 1013 29.91 843 24.89 3.9 39 36 -10 14
11:55 1013 29.91 843 24.89 3.2 37.8 38 -9.6 14.7
12:00 1013 29.91 842 24.86 4.6 40.2 33 -10.3 13.5
12:05 1013 29.91 842 24.86 5.5 41.8 32 -10 14
12:10 1013 29.91 842 24.86 5.5 41.9 33 -9.7 14.6
12:15 1013 29.91 842 24.86 4.7 40.5 33 -10.3 13.5
12:20 1013 29.91 842 24.86 4.3 39.8 34 -10.1 13.9
12:25 1013 29.91 842 24.86 4 39.2 35 -9.9 14.1
12:30 1013 29.91 842 24.86 4.9 40.9 33 -10.1 13.9
12:35 1013 29.91 842 24.86 6.1 42.9 32 -9.6 14.7
12:40 1013 29.91 842 24.86 6.2 43.1 32 -9.3 15.3
12:45 1013 29.91 842 24.86 6.7 44.1 31 -9.2 15.4
12:50 1013 29.91 842 24.86 6.8 44.3 31 -9.1 15.6
12:55 1013 29.91 842 24.86 6.1 43.1 32 -9.2 15.5
13:00 1013 29.91 842 24.86 6.3 43.4 32 -9.2 15.4
13:05 1013 29.91 842 24.86 6.4 43.6 31 -9.6 14.6
13:10 1013 29.91 842 24.86 6.1 42.9 31 -9.8 14.4
13:15 1013 29.91 842 24.86 6.3 43.4 32 -9.4 15.2
13:20 1013 29.91 842 24.86 6.3 43.4 30 -10 14.1
13:25 1013 29.91 842 24.86 6.1 42.9 31 -10 13.9
13:30 1013 29.91 842 24.86 5.2 41.4 31 -10.5 13.1
13:35 1013 29.91 842 24.86 5.1 41.3 31 -10.7 12.7
13:40 1013 29.91 842 24.86 5.2 41.3 32 -10.1 13.8
13:45 1013 29.91 842 24.86 5.2 41.4 31 -10.5 13.1
13:50 1012 29.88 842 24.86 5.3 41.5 32 -10.2 13.6
13:55 1012 29.88 842 24.86 6 42.8 30 -10.4 13.4
14:00 1012 29.88 842 24.86 5.5 41.9 32 -9.9 14.2
14:05 1012 29.88 842 24.86 5.6 42 33 -9.6 14.8
14:10 1012 29.88 842 24.86 5.3 41.5 35 -9.2 15.5
14:15 1012 29.88 842 24.86 5.4 41.7 34 -9.2 15.4
14:20 1012 29.88 841 24.83 5.5 41.8 34 -9.2 15.5
14:25 1012 29.88 841 24.83 5.6 42 34 -9.2 15.4
14:30 1012 29.88 841 24.83 5.5 41.9 35 -8.9 16.1
14:35 1012 29.88 841 24.83 5.7 42.2 35 -8.8 16.2
14:40 1012 29.88 841 24.83 5.5 42 34 -8.9 15.9
14:45 1012 29.88 841 24.83 5.5 41.9 36 -8.5 16.7
14:50 1012 29.88 841 24.83 5.7 42.3 37 -7.9 17.7
14:55 1012 29.88 841 24.83 6.3 43.3 34 -8.4 16.9
15:00 1012 29.88 841 24.83 5.8 42.5 36 -8.2 17.3
15:05 1012 29.88 841 24.83 6.3 43.3 34 -8.3 17
15:10 1012 29.88 841 24.83 6.8 44.3 34 -8 17.6
15:15 1012 29.88 841 24.83 7.4 45.3 33 -7.9 17.7
15:20 1012 29.88 841 24.83 7.9 46.3 34 -7.1 19.1
15:25 1012 29.88 841 24.83 8.1 46.7 34 -6.9 19.5
15:30 1012 29.88 841 24.83 8.3 46.9 30 -8.4 16.9
15:35 1012 29.88 841 24.83 7.9 46.1 32 -8 17.6
15:40 1012 29.88 841 24.83 7.4 45.3 30 -9.2 15.4
15:45 1012 29.88 841 24.83 7.7 45.9 29 -9.1 15.6
15:50 1012 29.88 841 24.83 7.7 45.9 31 -8.5 16.8
15:55 1012 29.88 841 24.83 7.5 45.5 30 -8.8 16.1
16:00 1012 29.88 841 24.83 8.1 46.5 30 -8.3 17.1
16:05 1012 29.88 841 24.83 7.5 45.4 31 -8.5 16.7
16:10 1012 29.88 841 24.83 7.9 46.2 30 -8.4 16.8
16:15 1012 29.88 841 24.83 8.3 46.9 30 -8.5 16.7
16:20 1012 29.88 841 24.83 8.1 46.6 30 -8.3 17
16:25 1012 29.88 841 24.83 8 46.4 30 -8.7 16.4
16:30 1012 29.88 841 24.83 7.3 45.2 31 -8.8 16.2
16:35 1012 29.88 841 24.83 6.8 44.2 29 -9.9 14.3
16:40 1012 29.88 841 24.83 7.2 44.9 28 -10.1 13.7
16:45 1012 29.88 841 24.83 7.8 46.1 28 -9.8 14.4
16:50 1012 29.88 841 24.83 6.8 44.3 28 -10.5 13.1
16:55 1012 29.88 841 24.83 5.7 42.2 31 -10.2 13.7
17:00 1012 29.88 841 24.83 5.4 41.7 32 -9.9 14.2
17:05 1012 29.88 841 24.83 5.6 42 32 -9.8 14.4
17:10 1012 29.88 841 24.83 5.9 42.6 34 -9 15.9
17:15 1012 29.88 841 24.83 5.6 42 33 -9.4 15.2
17:20 1012 29.88 841 24.83 5.5 41.9 34 -9.2 15.5
17:25 1012 29.88 841 24.83 5.5 41.9 33 -9.5 14.8
17:30 1012 29.88 841 24.83 5.3 41.5 33 -9.9 14.2
17:35 1012 29.88 841 24.83 5.2 41.3 34 -9.6 14.7
17:40 1012 29.88 841 24.83 4.9 40.9 34 -9.8 14.4
17:45 1012 29.88 841 24.83 4.8 40.6 33 -10.1 13.9
17:50 1012 29.88 841 24.83 4.6 40.2 33 -10.3 13.5
17:55 1012 29.88 841 24.83 4.2 39.6 33 -10.6 12.9
18:00 1012 29.88 841 24.83 4 39.2 34 -10.4 13.3
18:05 1012 29.88 841 24.83 3.8 38.8 35 -10.2 13.6
18:10 1012 29.88 841 24.83 3.6 38.6 40 -8.6 16.5
18:15 1012 29.88 841 24.83 3.1 37.6 43 -8.3 17.1
18:20 1012 29.88 841 24.83 2.7 36.9 42 -9 15.8
18:25 1012 29.88 842 24.86 2.5 36.5 45 -8.2 17.2
18:30 1012 29.88 842 24.86 2.2 36 45 -8.4 16.8
18:35 1012 29.88 842 24.86 1.9 35.5 46 -8.4 16.8
18:40 1012 29.88 842 24.86 1.2 34.2 51 -7.9 17.8
18:45 1012 29.88 842 24.86 0.7 33.3 51 -8.4 16.9
18:50 1012 29.88 842 24.86 0.3 32.6 50 -9 15.8
18:55 1012 29.88 842 24.86 0.1 32.1 51 -8.9 16
19:00 1013 29.91 842 24.86 -0.3 31.4 53 -8.7 16.3
19:05 1013 29.91 842 24.86 -0.6 31 50 -9.8 14.4
19:10 1013 29.91 842 24.86 0.1 32.1 43 -11.1 12
19:15 1013 29.91 842 24.86 0.9 33.6 44 -10.1 13.9
19:20 1013 29.91 842 24.86 0.7 33.2 44 -10.1 13.8
19:25 1012 29.88 842 24.86 0.3 32.5 44 -10.5 13.1
19:30 1013 29.91 842 24.86 -0 31.9 45 -10.6 12.9
19:35 1013 29.91 842 24.86 -0.2 31.6 43 -11.3 11.7
19:40 1013 29.91 842 24.86 -0 32 43 -11.3 11.7
19:45 1013 29.91 842 24.86 0.1 32.1 42 -11.5 11.2
19:50 1013 29.91 842 24.86 0.2 32.4 42 -11.3 11.6
19:55 1013 29.91 842 24.86 0.3 32.5 43 -11 12.2
20:00 1013 29.91 842 24.86 0 32 44 -10.8 12.6
20:05 1013 29.91 842 24.86 -0.4 31.3 46 -10.7 12.8
20:10 1013 29.91 842 24.86 -0.4 31.3 48 -10.1 13.8
20:15 1013 29.91 842 24.86 -0.6 31 50 -9.8 14.4
20:20 1013 29.91 842 24.86 -0.8 30.6 50 -9.9 14.2
20:25 1013 29.91 842 24.86 -1 30.3 51 -9.8 14.4
20:30 1013 29.91 842 24.86 -1 30.2 51 -9.9 14.2
20:35 1013 29.91 842 24.86 -0.7 30.7 49 -10.2 13.6
20:40 1013 29.91 842 24.86 -0.4 31.2 46 -10.6 12.9
20:45 1013 29.91 842 24.86 -0.1 31.8 44 -11 12.2
20:50 1013 29.91 842 24.86 -0.1 31.8 44 -10.9 12.4
20:55 1013 29.91 842 24.86 -0.5 31.1 45 -11 12.2
21:00 1013 29.91 842 24.86 -0.7 30.8 45 -11.2 11.9
21:05 1013 29.91 842 24.86 -0.8 30.5 46 -10.9 12.3
21:10 1013 29.91 842 24.86 -0.8 30.5 46 -11.2 11.9
21:15 1013 29.91 842 24.86 -0.8 30.5 45 -11.3 11.7
21:20 1013 29.91 842 24.86 -0.8 30.6 46 -11.2 11.9
21:25 1013 29.91 842 24.86 -0.8 30.6 45 -11.4 11.6
21:30 1013 29.91 842 24.86 -0.9 30.4 46 -11.2 11.9
21:35 1013 29.91 842 24.86 -1.1 30 47 -10.9 12.3
21:40 1013 29.91 842 24.86 -1.4 29.5 49 -10.7 12.7
21:45 1013 29.91 842 24.86 -1.4 29.4 49 -10.9 12.4
21:50 1013 29.91 842 24.86 -1.3 29.7 48 -10.9 12.4
21:55 1013 29.91 842 24.86 -1.1 30 47 -11.2 11.9
22:00 1013 29.91 842 24.86 -0.9 30.4 46 -11 12.1
22:05 1013 29.91 842 24.86 -0.9 30.5 48 -10.6 12.8
22:10 1013 29.91 842 24.86 -1.1 30 49 -10.5 13.1
22:15 1013 29.91 842 24.86 -1.2 29.9 49 -10.6 13
22:20 1013 29.91 842 24.86 -1 30.1 48 -10.7 12.8
22:25 1013 29.91 842 24.86 -1.1 29.9 48 -10.8 12.5
22:30 1013 29.91 842 24.86 -1.5 29.2 49 -11 12.2
22:35 1013 29.91 842 24.86 -1.6 29.1 50 -10.8 12.5
22:40 1013 29.91 842 24.86 -1.5 29.3 49 -10.8 12.5
22:45 1013 29.91 842 24.86 -1.4 29.4 47 -11.2 11.8
22:50 1013 29.91 842 24.86 -1 30.1 45 -11.5 11.2
22:55 1013 29.91 842 24.86 -0.8 30.6 45 -11.2 11.8
23:00 1013 29.91 842 24.86 -0.9 30.5 45 -11.4 11.4
23:05 1013 29.91 842 24.86 -0.7 30.8 44 -11.6 11.2
23:10 1013 29.91 842 24.86 -0.5 31.1 44 -11.3 11.7
23:15 1013 29.91 842 24.86 -0.7 30.8 43 -11.6 11.1
23:20 1013 29.91 842 24.86 -0.6 31 44 -11.4 11.5
23:25 1013 29.91 842 24.86 -0.7 30.8 45 -11.1 12
23:30 1013 29.91 842 24.86 -1.2 29.9 49 -10.7 12.8
23:35 1013 29.91 842 24.86 -1.6 29.1 48 -11.1 12
23:40 1013 29.91 842 24.86 -1.5 29.2 49 -11 12.3
23:45 1013 29.91 842 24.86 -1.5 29.2 48 -11.1 12
23:50 1013 29.91 842 24.86 -1.4 29.5 48 -11.1 12.1
23:55 1013 29.91 842 24.86 -1.4 29.6 48 -11 12.1
24:00 1013 29.91 842 24.86 -1.2 29.8 47 -11.1 12